Time;durP1;ratioP1;P1;durP2;ratioP2;P2;SDS_P1;SDS_P2;PMS_P1;PMS_P2;Temp;Humidity;BMP_temperature;BMP_pressure;BME280_temperature;BME280_humidity;BME280_pressure;Samples;Min_cycle;Max_cycle;Signal;HPM_P1;HPM_P2
2022/09/25 00:00:41;;;;;;;15.55;5.97;;;;;;;16.46;51.32;98498.28;4454714;32;20418;-82
2022/09/25 00:03:07;;;;;;;12.75;5.62;;;;;;;16.47;51.38;98493.78;4456070;32;20101;-82
2022/09/25 00:05:37;;;;;;;12.07;5.18;;;;;;;16.33;51.79;98486.97;4454738;32;20097;-82
2022/09/25 00:08:04;;;;;;;11.50;5.55;;;;;;;16.39;51.69;98483.78;4454731;32;20170;-82
2022/09/25 00:10:30;;;;;;;11.68;5.18;;;;;;;16.39;51.82;98486.47;4455814;32;20107;-82
2022/09/25 00:12:55;;;;;;;10.32;4.60;;;;;;;16.39;51.83;98480.31;4455778;32;20093;-82
2022/09/25 00:15:21;;;;;;;11.35;5.20;;;;;;;16.36;51.92;98484.06;4454320;32;20451;-82
2022/09/25 00:17:47;;;;;;;11.77;5.40;;;;;;;16.17;52.74;98483.87;4455621;32;20199;-82
2022/09/25 00:20:15;;;;;;;14.60;5.62;;;;;;;16.20;52.54;98484.47;4468842;32;20084;-82
2022/09/25 00:22:41;;;;;;;12.65;5.30;;;;;;;16.22;52.40;98482.53;4472649;32;20100;-82
2022/09/25 00:25:10;;;;;;;10.60;5.30;;;;;;;16.21;52.49;98474.72;4486919;32;20123;-82
2022/09/25 00:27:35;;;;;;;12.50;5.78;;;;;;;16.22;52.53;98469.25;4472536;32;20087;-82
2022/09/25 00:30:02;;;;;;;12.77;5.53;;;;;;;16.12;52.40;98469.16;4486769;32;20135;-82
2022/09/25 00:32:27;;;;;;;14.77;6.03;;;;;;;16.17;52.25;98463.50;4486832;32;20116;-82
2022/09/25 00:34:53;;;;;;;13.62;6.07;;;;;;;16.19;52.33;98466.84;4472525;32;20381;-82
2022/09/25 00:37:18;;;;;;;15.68;6.32;;;;;;;16.12;52.50;98474.47;4472032;32;20130;-82
2022/09/25 00:39:44;;;;;;;14.02;5.97;;;;;;;15.94;52.81;98468.03;4486723;32;20080;-82
2022/09/25 00:42:12;;;;;;;11.50;5.87;;;;;;;16.09;52.48;98468.59;4486603;32;20148;-82
2022/09/25 00:44:40;;;;;;;12.35;5.97;;;;;;;16.18;52.32;98467.81;4472412;32;20123;-82
2022/09/25 00:47:07;;;;;;;12.80;5.50;;;;;;;16.25;52.11;98455.72;4486702;32;20100;-83
2022/09/25 00:49:32;;;;;;;13.10;5.62;;;;;;;16.29;51.98;98461.63;4472319;32;20447;-82
2022/09/25 00:52:06;;;;;;;12.80;5.75;;;;;;;16.29;52.08;98466.94;4472183;32;20176;-82
2022/09/25 00:54:35;;;;;;;12.85;5.47;;;;;;;16.34;52.17;98462.09;4472311;32;20130;-82
2022/09/25 00:57:05;;;;;;;15.10;6.05;;;;;;;16.40;52.27;98460.72;4472238;32;20097;-82
2022/09/25 00:59:37;;;;;;;13.18;5.97;;;;;;;16.40;52.49;98460.72;4459179;32;20116;-83
2022/09/25 01:02:03;;;;;;;12.50;6.03;;;;;;;16.45;52.41;98458.50;4472033;32;20781;-82
2022/09/25 01:04:32;;;;;;;13.93;6.15;;;;;;;16.43;52.29;98450.66;4472439;32;20113;-82
2022/09/25 01:06:58;;;;;;;13.15;6.25;;;;;;;16.45;52.17;98454.03;4472425;32;20092;-82
2022/09/25 01:09:24;;;;;;;13.10;5.90;;;;;;;16.45;52.14;98453.19;4486516;32;20080;-82
2022/09/25 01:11:50;;;;;;;13.57;6.40;;;;;;;16.48;51.95;98453.78;4486294;32;20380;-82
2022/09/25 01:14:16;;;;;;;13.80;6.43;;;;;;;16.47;52.07;98451.25;4486253;32;20108;-82
2022/09/25 01:16:50;;;;;;;13.80;5.93;;;;;;;16.51;52.00;98453.53;4486121;32;20119;-82
2022/09/25 01:19:47;;;;;;;12.88;5.78;;;;;;;16.52;52.02;98444.56;4486091;32;20122;-82
2022/09/25 01:22:41;;;;;;;13.77;5.85;;;;;;;16.61;52.00;98445.63;4406547;32;20251;-83
2022/09/25 01:25:33;;;;;;;13.15;5.53;;;;;;;16.64;52.10;98447.16;4406768;32;20158;-81
2022/09/25 01:28:32;;;;;;;10.73;5.62;;;;;;;16.61;52.21;98453.59;4394095;32;20094;-83
2022/09/25 01:31:01;;;;;;;12.53;6.17;;;;;;;16.60;52.13;98453.72;4404010;32;20167;-83
2022/09/25 01:33:34;;;;;;;11.88;5.97;;;;;;;16.60;52.10;98451.06;4391112;32;20118;-82
2022/09/25 01:36:05;;;;;;;12.20;5.65;;;;;;;16.64;52.03;98455.16;4392206;32;20113;-82
2022/09/25 01:38:38;;;;;;;11.57;5.28;;;;;;;16.68;51.99;98452.09;4392526;32;20132;-82
2022/09/25 01:41:10;;;;;;;12.02;5.68;;;;;;;16.70;51.93;98452.78;4394079;32;20292;-86
2022/09/25 01:43:39;;;;;;;13.35;5.75;;;;;;;16.69;52.06;98444.97;4381967;32;20426;-86
2022/09/25 01:46:12;;;;;;;13.77;5.60;;;;;;;16.68;52.07;98446.75;4407167;32;20163;-86
2022/09/25 01:48:38;;;;;;;15.60;6.00;;;;;;;16.69;52.06;98447.63;4407638;32;20598;-83
2022/09/25 01:51:07;;;;;;;13.32;6.12;;;;;;;16.71;52.06;98449.19;4395609;32;20105;-85
2022/09/25 01:53:46;;;;;;;13.10;5.72;;;;;;;16.69;52.15;98451.13;4407012;32;20162;-86
2022/09/25 01:56:24;;;;;;;;;;;;;;;16.72;52.14;98447.34;4408577;32;20118;-85
2022/09/25 01:58:55;;;;;;;12.35;5.70;;;;;;;16.77;52.10;98441.66;4417043;32;19973;-86
2022/09/25 02:01:24;;;;;;;13.45;5.80;;;;;;;16.70;52.27;98439.50;4486741;32;20099;-86
2022/09/25 02:03:56;;;;;;;18.05;7.32;;;;;;;16.69;52.35;98445.81;4486719;32;20562;-86
2022/09/25 02:06:22;;;;;;;21.85;8.30;;;;;;;16.68;52.34;98435.28;4488010;31;20085;-86
2022/09/25 02:09:06;;;;;;;17.75;6.60;;;;;;;16.67;52.15;98429.13;4486781;32;20194;-86
2022/09/25 02:11:37;;;;;;;17.50;6.43;;;;;;;16.70;52.20;98438.66;4486649;32;20102;-86
2022/09/25 02:14:17;;;;;;;13.62;6.43;;;;;;;16.70;52.19;98431.53;4486706;32;20108;-86
2022/09/25 02:16:43;;;;;;;18.87;6.47;;;;;;;16.69;52.22;98443.16;4473522;32;20131;-86
2022/09/25 02:22:21;;;;;;;14.00;6.62;;;;;;;16.64;52.36;98440.03;4487808;32;20181;-86
2022/09/25 02:25:25;;;;;;;14.35;5.87;;;;;;;16.63;52.54;98443.69;4481599;31;20096;-85
2022/09/25 02:27:50;;;;;;;14.05;6.37;;;;;;;16.53;52.84;98437.44;4438623;32;20580;-85
2022/09/25 02:30:16;;;;;;;13.98;6.53;;;;;;;16.41;53.10;98443.78;4438799;32;20121;-85
2022/09/25 02:32:41;;;;;;;14.75;6.50;;;;;;;16.40;53.13;98447.41;4438878;32;20108;-85
2022/09/25 02:35:08;;;;;;;14.02;6.68;;;;;;;16.39;53.10;98443.09;4438828;32;20156;-85
2022/09/25 02:37:33;;;;;;;13.25;6.28;;;;;;;16.33;53.19;98438.28;4426096;32;20579;-85
2022/09/25 02:40:00;;;;;;;13.02;5.97;;;;;;;16.30;53.26;98445.56;4438853;32;20109;-85
2022/09/25 02:43:24;;;;;;;12.33;6.00;;;;;;;16.28;53.36;98444.84;4426157;32;20114;-85
2022/09/25 02:46:05;;;;;;;12.73;6.32;;;;;;;16.16;53.93;98445.84;4377681;32;20482;-84
2022/09/25 02:49:23;;;;;;;14.18;6.30;;;;;;;16.15;53.94;98445.97;4377963;32;20473;-84
2022/09/25 02:52:04;;;;;;;14.30;6.62;;;;;;;16.14;54.01;98444.28;4332819;33;20142;-84
2022/09/25 02:54:34;;;;;;;16.25;6.95;;;;;;;16.09;54.11;98447.34;4333269;33;20165;-84
2022/09/25 02:57:16;;;;;;;14.15;7.05;;;;;;;16.06;54.13;98444.94;4333008;33;20199;-84
2022/09/25 02:59:49;;;;;;;16.15;7.75;;;;;;;16.03;54.21;98437.19;4333369;33;20146;-84
2022/09/25 03:02:15;;;;;;;16.12;7.65;;;;;;;15.99;54.18;98433.09;4333030;33;20538;-84
2022/09/25 03:04:41;;;;;;;16.45;7.32;;;;;;;15.97;54.08;98429.72;4348343;32;20113;-84
2022/09/25 03:07:07;;;;;;;15.05;7.32;;;;;;;15.98;54.14;98434.94;4362666;32;20181;-84
2022/09/25 03:09:34;;;;;;;13.90;6.95;;;;;;;15.87;54.45;98434.97;4362565;32;20118;-84
2022/09/25 03:12:02;;;;;;;14.25;6.78;;;;;;;15.76;54.87;98427.03;4363043;32;20091;-84
2022/09/25 03:14:27;;;;;;;14.43;7.12;;;;;;;15.75;55.02;98425.34;4362937;32;20119;-84
2022/09/25 03:16:57;;;;;;;15.13;7.20;;;;;;;15.79;54.95;98418.81;4419867;32;20121;-84
2022/09/25 03:19:26;;;;;;;13.82;7.37;;;;;;;15.72;55.10;98421.94;4438756;32;20113;-84
2022/09/25 03:21:53;;;;;;;15.63;7.57;;;;;;;15.74;55.12;98421.84;4438682;32;20107;-85
2022/09/25 03:24:18;;;;;;;15.90;7.93;;;;;;;15.70;55.13;98421.25;4438664;32;20113;-84
2022/09/25 03:26:44;;;;;;;14.57;7.60;;;;;;;15.75;55.00;98420.88;4446191;32;20096;-84
2022/09/25 03:29:11;;;;;;;15.43;8.32;;;;;;;15.72;55.02;98413.13;4487583;31;20092;-84
2022/09/25 03:31:37;;;;;;;17.20;7.80;;;;;;;15.67;55.14;98413.50;4487616;31;20085;-84
2022/09/25 03:34:02;;;;;;;13.70;7.37;;;;;;;15.70;54.98;98410.63;4486359;32;20413;-84
2022/09/25 03:36:29;;;;;;;16.10;8.13;;;;;;;15.68;55.11;98417.00;4487575;31;20123;-84
2022/09/25 03:38:59;;;;;;;15.98;7.82;;;;;;;15.69;55.13;98416.88;4486100;32;20123;-84
2022/09/25 03:41:27;;;;;;;15.88;7.95;;;;;;;15.71;55.11;98414.94;4487364;31;20515;-84
2022/09/25 03:43:52;;;;;;;14.43;7.85;;;;;;;15.72;55.18;98414.00;4487218;31;20088;-84
2022/09/25 03:46:20;;;;;;;14.30;7.45;;;;;;;15.73;55.20;98417.50;4487178;31;20114;-84
2022/09/25 03:48:46;;;;;;;;;;;;;;;15.72;55.25;98421.09;4486379;32;20436;-84
2022/09/25 03:51:12;;;;;;;14.30;7.55;;;;;;;15.78;55.21;98419.78;4487167;31;19975;-84
2022/09/25 03:53:38;;;;;;;16.42;7.90;;;;;;;15.79;55.13;98432.94;4486022;32;20104;-84
2022/09/25 03:56:11;;;;;;;16.95;7.97;;;;;;;15.78;55.23;98441.03;4487214;31;20080;-84
2022/09/25 03:58:36;;;;;;;15.25;7.53;;;;;;;15.81;55.21;98446.09;4487138;31;20149;-84
2022/09/25 04:01:02;;;;;;;15.95;7.55;;;;;;;15.77;55.28;98447.31;4486812;31;20367;-84
2022/09/25 04:03:29;;;;;;;13.13;6.10;;;;;;;15.85;55.17;98442.22;4487097;31;20102;-84
2022/09/25 04:05:56;;;;;;;15.80;7.65;;;;;;;15.88;55.16;98441.97;4487118;31;20092;-84
2022/09/25 04:08:24;;;;;;;16.27;7.87;;;;;;;15.95;54.95;98447.63;4487112;31;20089;-84
2022/09/25 04:10:50;;;;;;;13.60;6.82;;;;;;;16.00;54.78;98434.81;4486908;31;20511;-84
2022/09/25 04:13:18;;;;;;;14.07;6.65;;;;;;;16.03;54.65;98435.41;4485909;32;20110;-85
2022/09/25 04:15:44;;;;;;;15.80;7.70;;;;;;;16.09;54.68;98442.03;4485558;32;20101;-85
2022/09/25 04:18:09;;;;;;;12.90;6.28;;;;;;;16.16;54.57;98439.69;4486943;31;20401;-84
2022/09/25 04:20:36;;;;;;;13.15;6.20;;;;;;;16.20;54.56;98435.81;4486710;31;20408;-84
2022/09/25 04:23:01;;;;;;;14.50;7.40;;;;;;;16.20;54.62;98422.50;4486896;31;20068;-82
2022/09/25 04:25:27;;;;;;;13.40;7.43;;;;;;;16.24;54.67;98419.47;4486943;31;20180;-82
2022/09/25 04:27:54;;;;;;;15.00;7.47;;;;;;;16.20;54.70;98417.19;4486027;32;20470;-82
2022/09/25 04:30:26;;;;;;;14.55;7.15;;;;;;;16.20;54.53;98419.84;4487217;31;20084;-82
2022/09/25 04:35:35;;;;;;;14.93;7.45;;;;;;;16.18;54.55;98422.63;4485952;32;20119;-82
2022/09/25 04:38:01;;;;;;;13.45;6.75;;;;;;;16.26;54.51;98424.66;4486700;31;20084;-85
2022/09/25 04:40:27;;;;;;;13.65;6.28;;;;;;;16.27;54.50;98421.03;4486711;31;20080;-85
2022/09/25 04:43:00;;;;;;;14.18;7.22;;;;;;;16.26;54.63;98420.22;4486798;31;20145;-84
2022/09/25 04:45:26;;;;;;;13.75;7.05;;;;;;;16.31;54.61;98420.63;4485609;32;20091;-84
2022/09/25 04:47:55;;;;;;;13.75;6.80;;;;;;;16.30;54.55;98413.66;4486686;31;20088;-85
2022/09/25 04:50:21;;;;;;;14.35;6.72;;;;;;;16.25;54.51;98418.50;4485518;32;20096;-84
2022/09/25 04:52:50;;;;;;;14.82;7.60;;;;;;;16.26;54.33;98414.88;4486668;31;20072;-84
2022/09/25 04:55:16;;;;;;;15.43;7.62;;;;;;;16.19;54.41;98423.50;4485373;32;20518;-84
2022/09/25 04:57:41;;;;;;;15.27;6.95;;;;;;;16.23;54.34;98425.75;4486577;31;20144;-84
2022/09/25 05:00:07;;;;;;;14.90;7.22;;;;;;;16.26;54.33;98420.22;4485232;32;20112;-84
2022/09/25 05:02:33;;;;;;;15.30;7.25;;;;;;;16.29;54.51;98425.25;4486373;31;20085;-84
2022/09/25 05:04:58;;;;;;;14.93;6.93;;;;;;;16.26;54.52;98428.19;4486458;31;20099;-84
2022/09/25 05:07:24;;;;;;;15.48;7.22;;;;;;;16.33;54.34;98427.66;4486462;31;20435;-83
2022/09/25 05:09:49;;;;;;;15.02;7.07;;;;;;;16.36;54.29;98424.72;4485191;32;20092;-83
2022/09/25 05:12:15;;;;;;;13.45;6.82;;;;;;;16.40;54.27;98428.81;4486217;31;20076;-84
2022/09/25 05:14:41;;;;;;;15.65;7.00;;;;;;;16.44;54.25;98424.94;4487878;31;20141;-84
2022/09/25 05:17:09;;;;;;;15.20;6.75;;;;;;;16.47;54.29;98422.84;4487052;32;20091;-84
2022/09/25 05:19:35;;;;;;;13.82;6.95;;;;;;;16.51;54.40;98426.09;4488278;31;20107;-84
2022/09/25 05:22:01;;;;;;;13.30;6.55;;;;;;;16.54;54.46;98425.84;4488075;31;20157;-84
2022/09/25 05:24:26;;;;;;;13.18;6.57;;;;;;;16.59;54.45;98431.63;4488219;31;20096;-83
2022/09/25 05:26:51;;;;;;;17.05;7.75;;;;;;;16.59;54.33;98426.31;4488387;31;20071;-83
2022/09/25 05:29:17;;;;;;;13.85;7.65;;;;;;;16.64;53.82;98428.56;4488297;31;20524;-84
2022/09/25 05:31:45;;;;;;;13.85;7.10;;;;;;;16.67;53.31;98433.63;4488469;31;20084;-84
2022/09/25 05:34:12;;;;;;;14.87;7.87;;;;;;;16.70;53.10;98428.03;4487211;32;20135;-84
2022/09/25 05:36:37;;;;;;;15.13;6.78;;;;;;;16.73;52.97;98421.59;4488280;31;20115;-84
2022/09/25 05:39:03;;;;;;;12.32;6.75;;;;;;;16.79;52.47;98421.91;4488431;31;20119;-84
2022/09/25 05:41:30;;;;;;;15.60;6.75;;;;;;;16.83;52.34;98426.03;4488381;31;20317;-85
2022/09/25 05:43:56;;;;;;;13.55;6.82;;;;;;;16.85;52.20;98426.75;4488097;31;20151;-84
2022/09/25 05:46:21;;;;;;;14.48;7.10;;;;;;;16.88;52.09;98431.81;4488074;31;20399;-84
2022/09/25 05:48:47;;;;;;;13.95;7.47;;;;;;;16.94;51.82;98429.56;4488090;32;20176;-84
2022/09/25 05:51:12;;;;;;;14.18;7.00;;;;;;;16.96;51.91;98433.81;4488064;31;20089;-84
2022/09/25 05:53:38;;;;;;;13.20;7.15;;;;;;;17.03;51.78;98436.75;4487851;31;20089;-85
2022/09/25 05:56:04;;;;;;;15.45;7.65;;;;;;;16.99;52.03;98433.53;4487964;31;20382;-85
2022/09/25 05:58:30;;;;;;;14.77;7.03;;;;;;;17.08;51.99;98431.91;4486803;32;20443;-85
2022/09/25 06:01:05;;;;;;;13.55;7.07;;;;;;;17.13;51.57;98432.31;4487967;31;20076;-85
2022/09/25 06:03:31;;;;;;;13.98;6.87;;;;;;;17.21;51.33;98426.31;4488011;31;20123;-85
2022/09/25 06:05:57;;;;;;;14.35;7.22;;;;;;;17.25;51.02;98435.75;4486693;32;20368;-85
2022/09/25 06:08:23;;;;;;;14.27;7.47;;;;;;;17.23;51.10;98438.53;4487947;31;20155;-85
2022/09/25 06:10:55;;;;;;;14.27;7.18;;;;;;;17.29;51.08;98443.31;4487821;31;20100;-85
2022/09/25 06:13:26;;;;;;;14.68;7.65;;;;;;;17.37;51.00;98445.31;4486703;32;20478;-85
2022/09/25 06:15:52;;;;;;;14.98;7.28;;;;;;;17.41;51.07;98445.87;4486623;32;20134;-83
2022/09/25 06:18:22;;;;;;;15.35;7.97;;;;;;;17.33;51.31;98457.22;4487760;31;20446;-83
2022/09/25 06:20:48;;;;;;;15.52;7.80;;;;;;;17.36;51.32;98448.94;4486576;32;20394;-83
2022/09/25 06:23:14;;;;;;;17.77;7.80;;;;;;;17.40;51.36;98458.38;4487756;31;20364;-84
2022/09/25 06:25:39;;;;;;;15.32;7.40;;;;;;;17.41;51.53;98456.53;4486525;32;20096;-84
2022/09/25 06:28:05;;;;;;;14.75;7.03;;;;;;;17.46;51.73;98452.50;4487679;31;20072;-84
2022/09/25 06:30:33;;;;;;;13.68;6.40;;;;;;;17.52;51.56;98458.22;4473256;32;20089;-84
2022/09/25 06:33:11;;;;;;;;;;;;;;;17.53;51.61;98460.78;4488054;31;20119;-84
2022/09/25 06:35:42;;;;;;;14.90;6.95;;;;;;;17.57;51.36;98467.50;4487731;31;20003;-84
2022/09/25 06:38:07;;;;;;;14.40;6.70;;;;;;;17.57;51.22;98458.69;4486926;32;20080;-84
2022/09/25 06:40:33;;;;;;;14.15;7.20;;;;;;;17.61;51.23;98452.94;4487800;31;20136;-85
2022/09/25 06:43:00;;;;;;;14.07;7.12;;;;;;;17.57;50.99;98453.34;4487940;31;20092;-85
2022/09/25 06:45:27;;;;;;;16.02;7.62;;;;;;;17.62;50.86;98454.63;4486641;32;20510;-85
2022/09/25 06:47:56;;;;;;;13.35;7.28;;;;;;;17.56;50.80;98451.66;4487904;31;20166;-84
2022/09/25 06:50:30;;;;;;;13.57;7.55;;;;;;;17.67;50.66;98456.88;4486483;32;20080;-83
2022/09/25 06:52:58;;;;;;;14.10;7.35;;;;;;;17.66;50.61;98463.19;4487690;31;20088;-83
2022/09/25 06:55:24;;;;;;;14.25;7.62;;;;;;;17.71;50.50;98460.94;4487595;31;20554;-84
2022/09/25 06:57:50;;;;;;;14.50;7.50;;;;;;;17.73;50.64;98464.34;4487515;31;20093;-85
2022/09/25 07:00:15;;;;;;;15.52;7.68;;;;;;;17.79;50.60;98465.59;4487459;31;20153;-85
2022/09/25 07:05:25;;;;;;;16.27;7.68;;;;;;;18.00;50.15;98465.50;4487536;32;20118;-85
2022/09/25 07:07:50;;;;;;;14.93;7.45;;;;;;;18.10;50.00;98466.38;4487368;31;20088;-83
2022/09/25 07:10:16;;;;;;;15.68;7.32;;;;;;;18.07;49.78;98467.50;4486166;32;20428;-82
2022/09/25 07:12:41;;;;;;;15.13;7.70;;;;;;;18.01;50.11;98461.87;4485066;31;20557;-84
2022/09/25 07:15:07;;;;;;;13.60;7.25;;;;;;;18.19;49.80;98456.69;4471993;32;20103;-84
2022/09/25 07:17:33;;;;;;;13.88;7.90;;;;;;;18.31;49.51;98462.72;4484671;32;20118;-82
2022/09/25 07:19:59;;;;;;;14.45;6.87;;;;;;;18.42;49.18;98459.91;4470682;32;20846;-78
2022/09/25 07:22:25;;;;;;;14.77;7.60;;;;;;;18.51;48.82;98448.41;4485185;32;20156;-82
2022/09/25 07:24:50;;;;;;;14.20;7.60;;;;;;;18.57;49.04;98447.00;4477970;32;20479;-84
2022/09/25 07:27:16;;;;;;;14.93;7.45;;;;;;;18.70;48.75;98446.66;4483983;32;20076;-79
2022/09/25 07:29:41;;;;;;;14.43;7.53;;;;;;;18.83;48.58;98455.25;4472616;32;20118;-78
2022/09/25 07:32:07;;;;;;;12.50;6.32;;;;;;;18.89;47.94;98452.03;4483846;32;20098;-78
2022/09/25 07:34:34;;;;;;;13.43;7.50;;;;;;;19.00;47.81;98448.31;4482706;32;20087;-79
2022/09/25 07:37:00;;;;;;;14.48;7.28;;;;;;;19.09;47.63;98459.97;4483293;32;20617;-80
2022/09/25 07:39:26;;;;;;;16.05;7.60;;;;;;;19.21;47.21;98450.78;4484208;31;20138;-81
2022/09/25 07:41:53;;;;;;;14.30;7.10;;;;;;;19.12;47.08;98460.50;4484747;32;20165;-82
2022/09/25 07:44:18;;;;;;;14.55;7.15;;;;;;;18.98;47.36;98445.78;4483210;31;20092;-80
2022/09/25 07:46:44;;;;;;;16.08;7.20;;;;;;;19.38;46.78;98441.16;4483179;32;20219;-81
2022/09/25 07:49:10;;;;;;;14.85;7.53;;;;;;;19.58;46.62;98434.69;4483127;32;20107;-81
2022/09/25 07:51:36;;;;;;;17.08;8.05;;;;;;;19.78;46.23;98431.94;4479436;32;20148;-81
2022/09/25 07:54:01;;;;;;;13.75;7.40;;;;;;;19.80;46.12;98430.81;4484686;31;20112;-81
2022/09/25 07:56:26;;;;;;;15.30;7.85;;;;;;;19.97;45.68;98422.94;4484219;31;20114;-82
2022/09/25 07:58:52;;;;;;;14.20;7.25;;;;;;;20.06;45.45;98423.87;4483683;32;20072;-82
2022/09/25 08:01:18;;;;;;;13.52;7.18;;;;;;;20.02;45.58;98431.34;4461171;32;20117;-81
2022/09/25 08:03:43;;;;;;;14.65;7.68;;;;;;;19.62;46.35;98430.75;4476561;32;20707;-81
2022/09/25 08:06:12;;;;;;;14.02;8.10;;;;;;;19.61;46.10;98426.38;4481154;31;20518;-82
2022/09/25 08:08:38;;;;;;;13.73;7.35;;;;;;;19.50;46.13;98431.09;4466455;32;20130;-82
2022/09/25 08:11:06;;;;;;;14.15;7.30;;;;;;;19.78;45.94;98426.56;4475606;32;20127;-82
2022/09/25 08:13:32;;;;;;;14.25;7.37;;;;;;;19.87;45.60;98433.69;4482117;32;20096;-85
2022/09/25 08:16:01;;;;;;;15.55;8.18;;;;;;;19.95;45.68;98424.91;4481501;32;20632;-85
2022/09/25 08:18:26;;;;;;;16.15;7.82;;;;;;;20.03;45.39;98430.37;4468537;32;20137;-86
2022/09/25 08:20:51;;;;;;;14.60;8.30;;;;;;;20.07;45.15;98438.91;4480271;32;20116;-85
2022/09/25 08:23:17;;;;;;;14.80;7.85;;;;;;;20.02;45.20;98444.72;4467988;32;20161;-86
2022/09/25 08:25:47;;;;;;;13.65;7.60;;;;;;;19.83;45.53;98443.00;4466438;32;20407;-86
2022/09/25 08:28:13;;;;;;;13.25;7.75;;;;;;;20.03;45.60;98438.37;4469115;32;20092;-85
2022/09/25 08:30:38;;;;;;;12.77;7.25;;;;;;;20.06;45.74;98447.94;4468509;32;20433;-86
2022/09/25 08:33:10;;;;;;;18.08;7.70;;;;;;;20.23;45.66;98437.22;4468923;32;20109;-85
2022/09/25 08:35:36;;;;;;;16.48;6.97;;;;;;;20.30;45.54;98433.91;4469903;32;20115;-86
2022/09/25 08:38:01;;;;;;;13.73;6.80;;;;;;;20.47;45.50;98429.56;4469582;32;20111;-86
2022/09/25 08:40:29;;;;;;;13.88;6.93;;;;;;;20.56;45.37;98442.00;4469357;32;20112;-85
2022/09/25 08:42:54;;;;;;;;;;;;;;;20.30;46.44;98436.59;4470481;32;20104;-86
2022/09/25 08:51:04;;;;;;;11.35;3.78;;;;;;;20.59;45.53;98430.97;4471618;32;20157;-85
2022/09/25 08:53:31;;;;;;;10.38;4.00;;;;;;;20.76;44.95;98423.94;4469844;32;20562;-85
2022/09/25 08:56:16;;;;;;;9.52;3.65;;;;;;;20.66;45.66;98429.38;4483638;32;20088;-86
2022/09/25 08:58:46;;;;;;;9.95;3.37;;;;;;;20.80;45.12;98436.88;4469643;32;20165;-86
2022/09/25 09:01:15;;;;;;;9.18;3.28;;;;;;;20.89;44.71;98432.38;4468629;32;20123;-86
2022/09/25 09:03:55;;;;;;;9.93;3.30;;;;;;;21.02;44.25;98427.44;4469358;32;20122;-85
2022/09/25 09:06:26;;;;;;;12.15;3.00;;;;;;;20.96;44.34;98430.75;4483761;32;20100;-85
2022/09/25 09:08:55;;;;;;;8.15;3.00;;;;;;;21.00;44.24;98426.75;4469192;32;20080;-86
2022/09/25 09:11:30;;;;;;;9.35;3.10;;;;;;;21.06;43.72;98430.66;4469577;32;20471;-88
2022/09/25 09:13:58;;;;;;;9.57;2.83;;;;;;;20.87;44.16;98434.38;4469163;32;20108;-84
2022/09/25 09:16:57;;;;;;;7.10;2.50;;;;;;;21.08;43.46;98431.31;4483508;32;20455;-86
2022/09/25 09:19:23;;;;;;;9.30;2.85;;;;;;;20.76;44.42;98432.78;4455661;32;20119;-84
2022/09/25 09:22:11;;;;;;;8.65;2.95;;;;;;;20.86;44.09;98432.72;4483714;32;20093;-85
2022/09/25 09:25:02;;;;;;;8.90;2.72;;;;;;;20.82;43.96;98447.38;4468883;32;20104;-84
2022/09/25 09:27:46;;;;;;;8.40;2.75;;;;;;;20.73;44.31;98440.31;4469420;32;20490;-85
2022/09/25 09:30:18;;;;;;;9.02;2.85;;;;;;;20.55;44.87;98440.31;4468890;32;20092;-86
2022/09/25 09:33:04;;;;;;;9.63;2.60;;;;;;;20.41;44.79;98436.34;4469056;32;20172;-85
2022/09/25 09:35:52;;;;;;;10.38;3.03;;;;;;;20.38;44.92;98447.38;4483766;32;20092;-87
2022/09/25 09:38:32;;;;;;;7.53;2.65;;;;;;;20.27;45.63;98445.78;4469359;32;20152;-86
2022/09/25 09:41:21;;;;;;;6.57;2.20;;;;;;;20.29;45.78;98445.63;4482983;32;20584;-86
2022/09/25 09:44:18;;;;;;;8.55;2.70;;;;;;;20.22;45.75;98446.25;4390976;32;20122;-87
2022/09/25 09:46:55;;;;;;;8.82;2.80;;;;;;;20.11;46.10;98450.97;4379078;32;20142;-87
2022/09/25 09:49:36;;;;;;;8.63;2.53;;;;;;;20.11;46.68;98442.94;4391650;32;20195;-85
2022/09/25 09:52:18;;;;;;;8.65;2.65;;;;;;;19.89;47.71;98442.41;4391331;32;20116;-86
2022/09/25 09:54:48;;;;;;;7.75;2.33;;;;;;;19.98;47.42;98444.16;4391583;32;20192;-86
2022/09/25 09:57:27;;;;;;;8.07;2.50;;;;;;;19.93;48.30;98446.44;4402506;32;20106;-85
2022/09/25 10:00:06;;;;;;;8.75;2.30;;;;;;;20.08;48.80;98445.94;4392514;32;20090;-81
2022/09/25 10:02:55;;;;;;;7.55;2.45;;;;;;;19.89;49.73;98436.22;4392904;32;20139;-81
2022/09/25 10:05:24;;;;;;;;;;;;;;;19.95;50.02;98441.81;4400290;32;20140;-81
2022/09/25 10:07:50;;;;;;;7.75;2.50;;;;;;;19.91;50.67;98437.75;4405290;32;19994;-81
2022/09/25 10:10:17;;;;;;;10.32;3.05;;;;;;;19.92;50.06;98431.41;4404096;32;20114;-82
2022/09/25 10:12:46;;;;;;;8.50;2.73;;;;;;;19.95;50.33;98433.81;4402239;32;20133;-81
2022/09/25 10:15:23;;;;;;;8.57;2.90;;;;;;;19.87;50.95;98432.88;4391355;32;20853;-80
2022/09/25 10:17:49;;;;;;;9.57;3.07;;;;;;;19.99;51.31;98434.31;4402041;32;20542;-81
2022/09/25 10:20:19;;;;;;;9.40;2.72;;;;;;;19.86;51.04;98440.06;4424185;32;20119;-81
2022/09/25 10:22:45;;;;;;;8.27;2.80;;;;;;;19.97;51.23;98444.31;4484747;32;20106;-81
2022/09/25 10:25:11;;;;;;;7.20;2.78;;;;;;;19.78;52.68;98446.16;4471901;32;20138;-82
2022/09/25 10:27:44;;;;;;;9.40;3.05;;;;;;;19.91;51.99;98444.94;4484143;32;20144;-81
2022/09/25 10:30:10;;;;;;;8.35;3.00;;;;;;;19.83;51.22;98440.34;4485432;32;20115;-82
2022/09/25 10:32:53;;;;;;;7.40;2.65;;;;;;;19.86;51.51;98441.84;4485025;31;20432;-83
2022/09/25 10:35:20;;;;;;;8.32;2.83;;;;;;;19.79;52.00;98446.97;4484424;32;20108;-81
2022/09/25 10:37:59;;;;;;;9.65;3.03;;;;;;;19.84;52.99;98440.19;4485480;31;20093;-81
2022/09/25 10:40:30;;;;;;;8.88;2.90;;;;;;;19.87;52.73;98431.03;4484099;32;20106;-81
2022/09/25 10:43:05;;;;;;;9.07;3.00;;;;;;;19.70;51.59;98438.03;4483562;31;20190;-81
2022/09/25 10:45:35;;;;;;;9.63;3.17;;;;;;;19.53;53.47;98426.31;4485576;31;20100;-81
2022/09/25 10:51:05;;;;;;;8.93;2.58;;;;;;;19.77;53.27;98420.41;4483784;32;20115;-84
2022/09/25 10:53:30;;;;;;;8.82;2.97;;;;;;;19.74;52.78;98428.75;4485210;31;20735;-83
2022/09/25 10:56:08;;;;;;;8.80;2.95;;;;;;;19.62;53.56;98417.41;4485623;31;20097;-83
2022/09/25 10:58:50;;;;;;;8.85;3.37;;;;;;;19.75;53.00;98419.72;4470859;32;20104;-83
2022/09/25 11:01:16;;;;;;;8.70;2.95;;;;;;;18.96;54.92;98418.41;4483227;32;20154;-80
2022/09/25 11:03:55;;;;;;;9.20;2.70;;;;;;;19.29;54.54;98418.00;4485480;31;20110;-82
2022/09/25 11:06:32;;;;;;;8.10;2.58;;;;;;;19.43;54.83;98409.47;4484085;32;20914;-81
2022/09/25 11:09:04;;;;;;;9.90;2.62;;;;;;;19.40;54.09;98399.09;4472617;32;20088;-80
2022/09/25 11:11:29;;;;;;;7.37;2.40;;;;;;;19.54;53.85;98400.41;4467443;32;20149;-81
2022/09/25 11:13:57;;;;;;;6.47;2.15;;;;;;;19.53;53.92;98396.03;4468322;32;20092;-82
2022/09/25 11:16:49;;;;;;;8.38;2.40;;;;;;;19.74;52.78;98394.00;4467610;32;20101;-82
2022/09/25 11:19:24;;;;;;;7.50;2.28;;;;;;;19.88;52.68;98400.63;4468560;32;20105;-82
2022/09/25 11:22:24;;;;;;;5.22;1.77;;;;;;;19.51;53.59;98400.69;4469383;32;20844;-82
2022/09/25 11:24:56;;;;;;;6.90;2.12;;;;;;;19.80;52.95;98398.72;4463768;32;20100;-83
2022/09/25 11:27:35;;;;;;;8.20;2.58;;;;;;;19.73;52.79;98399.50;4467419;32;20418;-84
2022/09/25 11:30:05;;;;;;;8.15;2.50;;;;;;;19.84;52.25;98402.78;4479225;32;20100;-81
2022/09/25 11:33:00;;;;;;;6.78;2.20;;;;;;;19.44;53.26;98406.66;4485380;32;20542;-82
2022/09/25 11:35:46;;;;;;;6.62;2.33;;;;;;;19.51;53.68;98403.38;4477992;32;20764;-81
2022/09/25 11:41:27;;;;;;;6.47;2.33;;;;;;;19.21;55.10;98392.84;4485228;32;20159;-82
2022/09/25 11:44:17;;;;;;;7.45;2.50;;;;;;;19.37;54.93;98402.91;4483495;32;20112;-82
2022/09/25 11:47:11;;;;;;;6.22;2.30;;;;;;;19.36;54.89;98403.91;4484728;31;20092;-82
2022/09/25 11:49:38;;;;;;;6.82;2.20;;;;;;;18.88;55.58;98407.63;4484210;32;20156;-82
2022/09/25 11:52:14;;;;;;;;;;;;;;;19.28;55.17;98402.94;4483463;32;20108;-83
2022/09/25 11:55:16;;;;;;;7.55;2.55;;;;;;;19.21;55.43;98397.38;4481062;31;19990;-82
2022/09/25 11:58:00;;;;;;;6.90;2.20;;;;;;;19.38;55.11;98407.25;4469086;32;20088;-82
2022/09/25 12:01:04;;;;;;;7.65;2.20;;;;;;;19.05;55.91;98403.34;4474604;32;20542;-82
2022/09/25 12:03:54;;;;;;;7.75;2.47;;;;;;;19.28;55.81;98393.13;4390313;32;20273;-82
2022/09/25 12:06:27;;;;;;;7.55;2.40;;;;;;;18.99;56.10;98402.09;4398848;32;20110;-82